Time,TemperatureF,DewpointF,PressureIn,WindDirection,WindDirectionDegrees,WindSpeedMPH,WindSpeedGustMPH,Humidity,HourlyPrecipIn,Conditions,Clouds,dailyrainin,SoftwareType,DateUTC
2013-11-07 00:06:00,41.5,38.5,29.90,WNW,292,4.7,-999.0,89,-99.99,,,0.00,Acu-Link.com,2013-11-07 05:06:00,
2013-11-07 00:21:00,41.4,37.8,29.90,WNW,292,4.2,-999.0,87,-99.99,,,0.00,Acu-Link.com,2013-11-07 05:21:00,
2013-11-07 00:36:00,41.4,37.8,29.91,North,0,4.7,-999.0,87,-99.99,,,0.00,Acu-Link.com,2013-11-07 05:36:00,
2013-11-07 00:51:00,40.8,36.9,29.91,West,270,6.3,-999.0,86,-99.99,,,0.00,Acu-Link.com,2013-11-07 05:51:00,
2013-11-07 01:06:00,40.5,36.6,29.92,WNW,292,8.9,-999.0,86,-99.99,,,0.00,Acu-Link.com,2013-11-07 06:06:00,
2013-11-07 01:21:00,40.5,36.1,29.91,NW,315,4.2,-999.0,84,-99.99,,,0.00,Acu-Link.com,2013-11-07 06:21:00,
2013-11-07 01:36:00,40.3,35.9,29.92,WNW,292,6.3,-999.0,84,-99.99,,,0.00,Acu-Link.com,2013-11-07 06:36:00,
2013-11-07 01:51:00,40.3,35.9,29.92,WNW,292,4.7,-999.0,84,-99.99,,,0.00,Acu-Link.com,2013-11-07 06:51:00,
2013-11-07 02:07:00,40.1,36.0,29.93,WNW,292,3.7,-999.0,85,-99.99,,,0.00,Acu-Link.com,2013-11-07 07:07:00,
2013-11-07 02:22:00,39.9,36.1,29.93,NW,315,4.2,-999.0,86,-99.99,,,0.00,Acu-Link.com,2013-11-07 07:22:00,
2013-11-07 02:37:00,39.7,35.9,29.93,NW,315,1.7,-999.0,86,-99.99,,,0.00,Acu-Link.com,2013-11-07 07:37:00,
2013-11-07 02:53:00,39.7,35.9,29.93,West,270,2.7,-999.0,86,-99.99,,,0.00,Acu-Link.com,2013-11-07 07:53:00,
2013-11-07 03:08:00,39.6,35.8,29.93,NW,315,4.7,-999.0,86,-99.99,,,0.00,Acu-Link.com,2013-11-07 08:08:00,
2013-11-07 03:23:00,39.6,35.8,29.94,WSW,247,3.7,-999.0,86,-99.99,,,0.00,Acu-Link.com,2013-11-07 08:23:00,
2013-11-07 03:38:00,39.7,36.2,29.94,WNW,292,4.7,-999.0,87,-99.99,,,0.00,Acu-Link.com,2013-11-07 08:38:00,
2013-11-07 03:53:00,39.7,36.2,29.94,West,270,5.3,-999.0,87,-99.99,,,0.00,Acu-Link.com,2013-11-07 08:53:00,
2013-11-07 04:09:00,39.6,36.1,29.94,West,270,2.7,-999.0,87,-99.99,,,0.00,Acu-Link.com,2013-11-07 09:09:00,
2013-11-07 04:24:00,39.4,35.9,29.94,West,270,4.2,-999.0,87,-99.99,,,0.00,Acu-Link.com,2013-11-07 09:24:00,
2013-11-07 04:39:00,39.4,36.1,29.94,West,270,2.7,-999.0,88,-99.99,,,0.00,Acu-Link.com,2013-11-07 09:39:00,
2013-11-07 04:54:00,39.2,36.0,29.94,West,270,3.2,-999.0,88,-99.99,,,0.00,Acu-Link.com,2013-11-07 09:54:00,
2013-11-07 05:09:00,39.2,36.0,29.95,WSW,247,2.7,-999.0,88,-99.99,,,0.00,Acu-Link.com,2013-11-07 10:09:00,
2013-11-07 05:25:00,39.2,36.0,29.95,West,270,3.2,-999.0,88,-99.99,,,0.00,Acu-Link.com,2013-11-07 10:25:00,
2013-11-07 05:40:00,39.0,35.5,29.95,North,0,2.7,-999.0,87,-99.99,,,0.00,Acu-Link.com,2013-11-07 10:40:00,
2013-11-07 05:55:00,38.1,34.3,29.96,NW,315,5.3,-999.0,86,-99.99,,,0.00,Acu-Link.com,2013-11-07 10:55:00,
2013-11-07 06:10:00,37.8,34.6,29.96,West,270,7.8,-999.0,88,-99.99,,,0.00,Acu-Link.com,2013-11-07 11:10:00,
2013-11-07 06:25:00,37.6,34.1,29.97,NNW,337,7.8,-999.0,87,-99.99,,,0.00,Acu-Link.com,2013-11-07 11:25:00,
2013-11-07 06:40:00,37.2,33.4,29.98,West,270,5.8,-999.0,86,-99.99,,,0.00,Acu-Link.com,2013-11-07 11:40:00,
2013-11-07 06:55:00,36.5,31.8,29.99,West,270,6.8,-999.0,83,-99.99,,,0.00,Acu-Link.com,2013-11-07 11:55:00,
2013-11-07 07:10:00,36.3,31.9,29.99,WSW,247,4.2,-999.0,84,-99.99,,,0.00,Acu-Link.com,2013-11-07 12:10:00,
2013-11-07 07:25:00,36.1,31.1,29.99,West,270,3.7,-999.0,82,-99.99,,,0.00,Acu-Link.com,2013-11-07 12:25:00,
2013-11-07 07:40:00,36.0,31.0,29.99,WNW,292,2.7,-999.0,82,-99.99,,,0.00,Acu-Link.com,2013-11-07 12:40:00,
2013-11-07 07:56:00,36.0,31.0,30.00,WSW,247,4.7,-999.0,82,-99.99,,,0.00,Acu-Link.com,2013-11-07 12:56:00,
2013-11-07 08:11:00,36.3,30.7,30.01,West,270,3.7,-999.0,80,-99.99,,,0.00,Acu-Link.com,2013-11-07 13:11:00,
2013-11-07 08:26:00,36.5,30.9,30.00,NNW,337,2.7,-999.0,80,-99.99,,,0.00,Acu-Link.com,2013-11-07 13:26:00,
2013-11-07 08:41:00,36.5,31.5,30.01,West,270,5.3,-999.0,82,-99.99,,,0.00,Acu-Link.com,2013-11-07 13:41:00,
2013-11-07 08:56:00,36.5,31.2,30.01,WNW,292,6.3,-999.0,81,-99.99,,,0.00,Acu-Link.com,2013-11-07 13:56:00,
2013-11-07 09:11:00,36.5,30.6,30.01,West,270,6.3,-999.0,79,-99.99,,,0.00,Acu-Link.com,2013-11-07 14:11:00,
2013-11-07 09:26:00,36.5,30.6,30.02,NW,315,4.7,-999.0,79,-99.99,,,0.00,Acu-Link.com,2013-11-07 14:26:00,
2013-11-07 09:42:00,36.5,30.3,30.02,WNW,292,4.7,-999.0,78,-99.99,,,0.00,Acu-Link.com,2013-11-07 14:42:00,
2013-11-07 09:57:00,36.5,30.3,30.02,West,270,4.2,-999.0,78,-99.99,,,0.00,Acu-Link.com,2013-11-07 14:57:00,
2013-11-07 10:12:00,36.7,30.5,30.02,West,270,2.7,-999.0,78,-99.99,,,0.00,Acu-Link.com,2013-11-07 15:12:00,
2013-11-07 10:27:00,37.0,30.8,30.02,West,270,4.7,-999.0,78,-99.99,,,0.00,Acu-Link.com,2013-11-07 15:27:00,
2013-11-07 10:42:00,37.4,30.9,30.03,West,270,5.8,-999.0,77,-99.99,,,0.00,Acu-Link.com,2013-11-07 15:42:00,
2013-11-07 10:57:00,37.9,30.7,30.03,WSW,247,6.3,-999.0,75,-99.99,,,0.00,Acu-Link.com,2013-11-07 15:57:00,
2013-11-07 11:50:00,38.1,30.6,30.03,NW,315,4.7,-999.0,74,-99.99,,,0.00,Acu-Link.com,2013-11-07 16:50:00,
2013-11-07 12:12:00,38.7,30.5,30.03,West,270,6.8,-999.0,72,-99.99,,,0.00,Acu-Link.com,2013-11-07 17:12:00,
2013-11-07 12:27:00,39.4,30.1,30.02,West,270,6.8,-999.0,69,-99.99,,,0.00,Acu-Link.com,2013-11-07 17:27:00,
2013-11-07 12:42:00,40.1,29.7,30.02,West,270,5.3,-999.0,66,-99.99,,,0.00,Acu-Link.com,2013-11-07 17:42:00,
2013-11-07 12:57:00,40.6,29.0,30.02,WSW,247,5.8,-999.0,63,-99.99,,,0.00,Acu-Link.com,2013-11-07 17:57:00,
2013-11-07 13:12:00,40.8,28.8,30.01,WSW,247,7.8,-999.0,62,-99.99,,,0.00,Acu-Link.com,2013-11-07 18:12:00,
2013-11-07 13:27:00,41.2,29.6,30.01,West,270,5.8,-999.0,63,-99.99,,,0.00,Acu-Link.com,2013-11-07 18:27:00,
2013-11-07 13:42:00,40.3,29.5,30.01,NW,315,9.4,-999.0,65,-99.99,,,0.00,Acu-Link.com,2013-11-07 18:42:00,
2013-11-07 13:57:00,40.8,30.0,30.01,NW,315,6.3,-999.0,65,-99.99,,,0.00,Acu-Link.com,2013-11-07 18:57:00,
2013-11-07 14:12:00,40.6,29.4,30.01,NW,315,6.3,-999.0,64,-99.99,,,0.00,Acu-Link.com,2013-11-07 19:12:00,
2013-11-07 14:28:00,41.0,29.4,30.00,WNW,292,7.3,-999.0,63,-99.99,,,0.00,Acu-Link.com,2013-11-07 19:28:00,
2013-11-07 14:43:00,43.5,31.0,30.00,West,270,5.8,-999.0,61,-99.99,,,0.00,Acu-Link.com,2013-11-07 19:43:00,
2013-11-07 14:58:00,42.6,29.7,29.99,West,270,5.8,-999.0,60,-99.99,,,0.00,Acu-Link.com,2013-11-07 19:58:00,
2013-11-07 15:13:00,42.1,28.8,29.98,NW,315,9.4,-999.0,59,-99.99,,,0.00,Acu-Link.com,2013-11-07 20:13:00,
2013-11-07 15:28:00,42.1,28.8,29.98,WNW,292,11.9,-999.0,59,-99.99,,,0.00,Acu-Link.com,2013-11-07 20:28:00,
2013-11-07 15:43:00,42.1,28.8,29.98,WNW,292,6.8,-999.0,59,-99.99,,,0.00,Acu-Link.com,2013-11-07 20:43:00,
2013-11-07 15:58:00,41.5,27.8,29.98,West,270,6.8,-999.0,58,-99.99,,,0.00,Acu-Link.com,2013-11-07 20:58:00,
2013-11-07 16:13:00,41.4,28.2,29.98,WSW,247,5.3,-999.0,59,-99.99,,,0.00,Acu-Link.com,2013-11-07 21:13:00,
2013-11-07 16:28:00,41.4,28.6,29.98,West,270,5.3,-999.0,60,-99.99,,,0.00,Acu-Link.com,2013-11-07 21:28:00,
2013-11-07 16:44:00,41.0,28.2,29.98,West,270,4.7,-999.0,60,-99.99,,,0.00,Acu-Link.com,2013-11-07 21:44:00,
2013-11-07 16:59:00,40.8,28.4,29.98,SW,225,4.2,-999.0,61,-99.99,,,0.00,Acu-Link.com,2013-11-07 21:59:00,
2013-11-07 17:14:00,40.6,29.0,29.98,West,270,6.3,-999.0,63,-99.99,,,0.00,Acu-Link.com,2013-11-07 22:14:00,
2013-11-07 17:29:00,40.5,28.9,29.99,West,270,4.2,-999.0,63,-99.99,,,0.00,Acu-Link.com,2013-11-07 22:29:00,
2013-11-07 17:44:00,40.5,28.9,29.99,West,270,6.8,-999.0,63,-99.99,,,0.00,Acu-Link.com,2013-11-07 22:44:00,
2013-11-07 17:59:00,40.3,28.7,29.99,NNW,337,7.8,-999.0,63,-99.99,,,0.00,Acu-Link.com,2013-11-07 22:59:00,
2013-11-07 18:14:00,40.1,28.5,30.00,WNW,292,5.8,-999.0,63,-99.99,,,0.00,Acu-Link.com,2013-11-07 23:14:00,
2013-11-07 18:29:00,39.7,28.5,30.00,WNW,292,6.3,-999.0,64,-99.99,,,0.00,Acu-Link.com,2013-11-07 23:29:00,
2013-11-07 18:44:00,39.6,28.1,30.01,WNW,292,6.8,-999.0,63,-99.99,,,0.00,Acu-Link.com,2013-11-07 23:44:00,
2013-11-07 19:00:00,39.4,28.3,30.01,WNW,292,7.8,-999.0,64,-99.99,,,0.00,Acu-Link.com,2013-11-08 00:00:00,
2013-11-07 19:15:00,39.0,28.6,30.01,West,270,5.3,-999.0,66,-99.99,,,0.00,Acu-Link.com,2013-11-08 00:15:00,
2013-11-07 19:30:00,38.8,28.4,30.01,West,270,5.3,-999.0,66,-99.99,,,0.00,Acu-Link.com,2013-11-08 00:30:00,
2013-11-07 19:45:00,38.5,28.5,30.01,West,270,5.3,-999.0,67,-99.99,,,0.00,Acu-Link.com,2013-11-08 00:45:00,
2013-11-07 20:00:00,38.5,28.5,30.00,NW,315,3.2,-999.0,67,-99.99,,,0.00,Acu-Link.com,2013-11-08 01:00:00,
2013-11-07 20:15:00,38.1,28.5,30.00,NNW,337,2.7,-999.0,68,-99.99,,,0.00,Acu-Link.com,2013-11-08 01:15:00,
2013-11-07 20:30:00,37.9,28.7,30.00,West,270,1.7,-999.0,69,-99.99,,,0.00,Acu-Link.com,2013-11-08 01:30:00,
2013-11-07 20:45:00,37.8,28.6,30.00,WNW,292,2.7,-999.0,69,-99.99,,,0.00,Acu-Link.com,2013-11-08 01:45:00,
2013-11-07 21:00:00,37.8,28.9,30.01,West,270,3.2,-999.0,70,-99.99,,,0.00,Acu-Link.com,2013-11-08 02:00:00,
2013-11-07 21:16:00,37.6,28.7,30.00,West,270,4.2,-999.0,70,-99.99,,,0.00,Acu-Link.com,2013-11-08 02:16:00,
2013-11-07 21:31:00,37.6,28.7,30.00,NNW,337,6.8,-999.0,70,-99.99,,,0.00,Acu-Link.com,2013-11-08 02:31:00,
2013-11-07 21:46:00,37.4,28.9,30.00,WNW,292,4.2,-999.0,71,-99.99,,,0.00,Acu-Link.com,2013-11-08 02:46:00,
2013-11-07 22:01:00,37.4,29.2,30.00,NW,315,2.7,-999.0,72,-99.99,,,0.00,Acu-Link.com,2013-11-08 03:01:00,
2013-11-07 22:16:00,37.2,29.0,30.01,SW,225,4.2,-999.0,72,-99.99,,,0.00,Acu-Link.com,2013-11-08 03:16:00,
2013-11-07 22:31:00,37.2,28.7,30.00,WSW,247,7.3,-999.0,71,-99.99,,,0.00,Acu-Link.com,2013-11-08 03:31:00,
2013-11-07 22:46:00,37.0,28.5,30.01,North,0,5.3,-999.0,71,-99.99,,,0.00,Acu-Link.com,2013-11-08 03:46:00,
2013-11-07 23:01:00,36.9,28.7,30.01,WNW,292,4.2,-999.0,72,-99.99,,,0.00,Acu-Link.com,2013-11-08 04:01:00,
2013-11-07 23:16:00,36.7,28.5,30.01,West,270,7.8,-999.0,72,-99.99,,,0.00,Acu-Link.com,2013-11-08 04:16:00,
2013-11-07 23:32:00,36.5,28.3,30.01,West,270,5.3,-999.0,72,-99.99,,,0.00,Acu-Link.com,2013-11-08 04:32:00,
2013-11-07 23:47:00,36.3,28.2,30.01,West,270,3.7,-999.0,72,-99.99,,,0.00,Acu-Link.com,2013-11-08 04:47:00,